sensor_id;sensor_type;location;lat;lon;timestamp;temperature;humidity
52919;DHT22;38793;52.690;6.812;2024-01-15T00:01:34;1.40;99.90
52919;DHT22;38793;52.690;6.812;2024-01-15T00:03:59;1.40;99.90
52919;DHT22;38793;52.690;6.812;2024-01-15T00:06:25;1.40;99.90
52919;DHT22;38793;52.690;6.812;2024-01-15T00:08:52;1.40;99.90
52919;DHT22;38793;52.690;6.812;2024-01-15T00:11:18;1.40;99.90
52919;DHT22;38793;52.690;6.812;2024-01-15T00:13:43;1.40;99.90
52919;DHT22;38793;52.690;6.812;2024-01-15T00:16:09;1.40;99.90
52919;DHT22;38793;52.690;6.812;2024-01-15T00:18:35;1.40;99.90
52919;DHT22;38793;52.690;6.812;2024-01-15T00:21:01;1.30;99.90
52919;DHT22;38793;52.690;6.812;2024-01-15T00:23:27;1.30;99.90
52919;DHT22;38793;52.690;6.812;2024-01-15T00:25:52;1.30;99.90
52919;DHT22;38793;52.690;6.812;2024-01-15T00:28:18;1.30;99.90
52919;DHT22;38793;52.690;6.812;2024-01-15T00:30:43;1.30;99.90
52919;DHT22;38793;52.690;6.812;2024-01-15T00:33:09;1.30;99.90
52919;DHT22;38793;52.690;6.812;2024-01-15T00:35:37;1.30;99.90
52919;DHT22;38793;52.690;6.812;2024-01-15T00:38:03;1.30;99.90
52919;DHT22;38793;52.690;6.812;2024-01-15T00:40:29;1.30;99.90
52919;DHT22;38793;52.690;6.812;2024-01-15T00:42:54;1.30;99.90
52919;DHT22;38793;52.690;6.812;2024-01-15T00:45:20;1.30;99.90
52919;DHT22;38793;52.690;6.812;2024-01-15T00:47:45;1.30;99.90
52919;DHT22;38793;52.690;6.812;2024-01-15T00:50:11;1.20;99.90
52919;DHT22;38793;52.690;6.812;2024-01-15T00:52:37;1.20;99.90
52919;DHT22;38793;52.690;6.812;2024-01-15T00:55:02;1.20;99.90
52919;DHT22;38793;52.690;6.812;2024-01-15T00:57:28;1.20;99.90
52919;DHT22;38793;52.690;6.812;2024-01-15T00:59:54;1.20;99.90
52919;DHT22;38793;52.690;6.812;2024-01-15T01:02:20;1.20;99.90
52919;DHT22;38793;52.690;6.812;2024-01-15T01:04:45;1.20;99.90
52919;DHT22;38793;52.690;6.812;2024-01-15T01:07:11;1.20;99.90
52919;DHT22;38793;52.690;6.812;2024-01-15T01:09:36;1.20;99.90
52919;DHT22;38793;52.690;6.812;2024-01-15T01:12:02;1.20;99.90
52919;DHT22;38793;52.690;6.812;2024-01-15T01:14:28;1.20;99.90
52919;DHT22;38793;52.690;6.812;2024-01-15T01:16:53;1.20;99.90
52919;DHT22;38793;52.690;6.812;2024-01-15T01:19:19;1.20;99.90
52919;DHT22;38793;52.690;6.812;2024-01-15T01:21:45;1.30;99.90
52919;DHT22;38793;52.690;6.812;2024-01-15T01:24:10;1.30;99.90
52919;DHT22;38793;52.690;6.812;2024-01-15T01:26:36;1.30;99.90
52919;DHT22;38793;52.690;6.812;2024-01-15T01:29:01;1.40;99.90
52919;DHT22;38793;52.690;6.812;2024-01-15T01:31:27;1.40;99.90
52919;DHT22;38793;52.690;6.812;2024-01-15T01:33:53;1.40;99.90
52919;DHT22;38793;52.690;6.812;2024-01-15T01:36:18;1.50;99.90
52919;DHT22;38793;52.690;6.812;2024-01-15T01:38:44;1.50;99.90
52919;DHT22;38793;52.690;6.812;2024-01-15T01:41:10;1.50;99.90
52919;DHT22;38793;52.690;6.812;2024-01-15T01:43:36;1.50;99.90
52919;DHT22;38793;52.690;6.812;2024-01-15T01:46:02;1.50;99.90
52919;DHT22;38793;52.690;6.812;2024-01-15T01:48:30;1.50;99.90
52919;DHT22;38793;52.690;6.812;2024-01-15T01:50:58;1.50;99.90
52919;DHT22;38793;52.690;6.812;2024-01-15T01:53:26;1.60;99.90
52919;DHT22;38793;52.690;6.812;2024-01-15T01:55:53;1.50;99.90
52919;DHT22;38793;52.690;6.812;2024-01-15T01:58:19;1.50;99.90
52919;DHT22;38793;52.690;6.812;2024-01-15T02:00:45;1.50;99.90
52919;DHT22;38793;52.690;6.812;2024-01-15T02:03:12;1.50;99.90
52919;DHT22;38793;52.690;6.812;2024-01-15T02:05:39;1.60;99.90
52919;DHT22;38793;52.690;6.812;2024-01-15T02:08:05;1.50;99.90
52919;DHT22;38793;52.690;6.812;2024-01-15T02:10:31;1.50;99.90
52919;DHT22;38793;52.690;6.812;2024-01-15T02:12:57;1.50;99.90
52919;DHT22;38793;52.690;6.812;2024-01-15T02:15:23;1.50;99.90
52919;DHT22;38793;52.690;6.812;2024-01-15T02:18:02;1.40;99.90
52919;DHT22;38793;52.690;6.812;2024-01-15T02:20:28;1.40;99.90
52919;DHT22;38793;52.690;6.812;2024-01-15T02:22:54;1.30;99.90
52919;DHT22;38793;52.690;6.812;2024-01-15T02:25:20;1.30;99.90
52919;DHT22;38793;52.690;6.812;2024-01-15T02:27:46;1.30;99.90
52919;DHT22;38793;52.690;6.812;2024-01-15T02:30:12;1.30;99.90
52919;DHT22;38793;52.690;6.812;2024-01-15T02:32:38;1.30;99.90
52919;DHT22;38793;52.690;6.812;2024-01-15T02:35:04;1.30;99.90
52919;DHT22;38793;52.690;6.812;2024-01-15T02:37:30;1.30;99.90
52919;DHT22;38793;52.690;6.812;2024-01-15T02:39:56;1.30;99.90
52919;DHT22;38793;52.690;6.812;2024-01-15T02:42:21;1.40;99.90
52919;DHT22;38793;52.690;6.812;2024-01-15T02:44:47;1.40;99.90
52919;DHT22;38793;52.690;6.812;2024-01-15T02:47:14;1.50;99.90
52919;DHT22;38793;52.690;6.812;2024-01-15T02:49:40;1.50;99.90
52919;DHT22;38793;52.690;6.812;2024-01-15T02:52:06;1.50;99.90
52919;DHT22;38793;52.690;6.812;2024-01-15T02:54:31;1.50;99.90
52919;DHT22;38793;52.690;6.812;2024-01-15T02:56:57;1.60;99.90
52919;DHT22;38793;52.690;6.812;2024-01-15T02:59:23;1.60;99.90
52919;DHT22;38793;52.690;6.812;2024-01-15T03:01:48;1.60;99.90
52919;DHT22;38793;52.690;6.812;2024-01-15T03:04:14;1.60;99.90
52919;DHT22;38793;52.690;6.812;2024-01-15T03:06:39;1.60;99.90
52919;DHT22;38793;52.690;6.812;2024-01-15T03:09:05;1.60;99.90
52919;DHT22;38793;52.690;6.812;2024-01-15T03:11:37;1.60;99.90
52919;DHT22;38793;52.690;6.812;2024-01-15T03:14:03;1.60;99.90
52919;DHT22;38793;52.690;6.812;2024-01-15T03:16:29;1.60;99.90
52919;DHT22;38793;52.690;6.812;2024-01-15T03:18:55;1.60;99.90
52919;DHT22;38793;52.690;6.812;2024-01-15T03:21:20;1.60;99.90
52919;DHT22;38793;52.690;6.812;2024-01-15T03:23:46;1.60;99.90
52919;DHT22;38793;52.690;6.812;2024-01-15T03:26:11;1.60;99.90
52919;DHT22;38793;52.690;6.812;2024-01-15T03:28:37;1.60;99.90
52919;DHT22;38793;52.690;6.812;2024-01-15T03:31:03;1.60;99.90
52919;DHT22;38793;52.690;6.812;2024-01-15T03:33:28;1.50;99.90
52919;DHT22;38793;52.690;6.812;2024-01-15T03:35:54;1.50;99.90
52919;DHT22;38793;52.690;6.812;2024-01-15T03:38:20;1.50;99.90
52919;DHT22;38793;52.690;6.812;2024-01-15T03:40:45;1.50;99.90
52919;DHT22;38793;52.690;6.812;2024-01-15T03:43:12;1.50;99.90
52919;DHT22;38793;52.690;6.812;2024-01-15T03:45:37;1.50;99.90
52919;DHT22;38793;52.690;6.812;2024-01-15T03:48:03;1.40;99.90
52919;DHT22;38793;52.690;6.812;2024-01-15T03:50:29;1.40;99.90
52919;DHT22;38793;52.690;6.812;2024-01-15T03:52:54;1.40;99.90
52919;DHT22;38793;52.690;6.812;2024-01-15T03:55:20;1.40;99.90
52919;DHT22;38793;52.690;6.812;2024-01-15T03:57:45;1.30;99.90
52919;DHT22;38793;52.690;6.812;2024-01-15T04:00:12;1.30;99.90
52919;DHT22;38793;52.690;6.812;2024-01-15T04:02:37;1.40;99.90
52919;DHT22;38793;52.690;6.812;2024-01-15T04:05:03;1.40;99.90
52919;DHT22;38793;52.690;6.812;2024-01-15T04:07:29;1.40;99.90
52919;DHT22;38793;52.690;6.812;2024-01-15T04:09:54;1.50;99.90
52919;DHT22;38793;52.690;6.812;2024-01-15T04:12:20;1.50;99.90
52919;DHT22;38793;52.690;6.812;2024-01-15T04:14:45;1.50;99.90
52919;DHT22;38793;52.690;6.812;2024-01-15T04:17:11;1.50;99.90
52919;DHT22;38793;52.690;6.812;2024-01-15T04:19:37;1.50;99.90
52919;DHT22;38793;52.690;6.812;2024-01-15T04:22:02;1.50;99.90
52919;DHT22;38793;52.690;6.812;2024-01-15T04:24:28;1.50;99.90
52919;DHT22;38793;52.690;6.812;2024-01-15T04:26:53;1.50;99.90
52919;DHT22;38793;52.690;6.812;2024-01-15T04:29:19;1.50;99.90
52919;DHT22;38793;52.690;6.812;2024-01-15T04:31:45;1.50;99.90
52919;DHT22;38793;52.690;6.812;2024-01-15T04:34:10;1.50;99.90
52919;DHT22;38793;52.690;6.812;2024-01-15T04:36:40;1.50;99.90
52919;DHT22;38793;52.690;6.812;2024-01-15T04:39:06;1.50;99.90
52919;DHT22;38793;52.690;6.812;2024-01-15T04:41:32;1.50;99.90
52919;DHT22;38793;52.690;6.812;2024-01-15T04:43:57;1.50;99.90
52919;DHT22;38793;52.690;6.812;2024-01-15T04:46:23;1.50;99.90
52919;DHT22;38793;52.690;6.812;2024-01-15T04:48:49;1.60;99.90
52919;DHT22;38793;52.690;6.812;2024-01-15T04:51:14;1.60;99.90
52919;DHT22;38793;52.690;6.812;2024-01-15T04:53:41;1.60;99.90
52919;DHT22;38793;52.690;6.812;2024-01-15T04:56:06;1.60;99.90
52919;DHT22;38793;52.690;6.812;2024-01-15T04:58:32;1.60;99.90
52919;DHT22;38793;52.690;6.812;2024-01-15T05:00:57;1.60;99.90
52919;DHT22;38793;52.690;6.812;2024-01-15T05:03:23;1.60;99.90
52919;DHT22;38793;52.690;6.812;2024-01-15T05:05:49;1.60;99.90
52919;DHT22;38793;52.690;6.812;2024-01-15T05:08:14;1.60;99.90
52919;DHT22;38793;52.690;6.812;2024-01-15T05:10:40;1.60;99.90
52919;DHT22;38793;52.690;6.812;2024-01-15T05:13:05;1.50;99.90
52919;DHT22;38793;52.690;6.812;2024-01-15T05:15:31;1.60;99.90
52919;DHT22;38793;52.690;6.812;2024-01-15T05:17:57;1.60;99.90
52919;DHT22;38793;52.690;6.812;2024-01-15T05:20:22;1.50;99.90
52919;DHT22;38793;52.690;6.812;2024-01-15T05:22:48;1.60;99.90
52919;DHT22;38793;52.690;6.812;2024-01-15T05:25:13;1.50;99.90
52919;DHT22;38793;52.690;6.812;2024-01-15T05:27:39;1.60;99.90
52919;DHT22;38793;52.690;6.812;2024-01-15T05:30:05;1.60;99.90
52919;DHT22;38793;52.690;6.812;2024-01-15T05:32:31;1.60;99.90
52919;DHT22;38793;52.690;6.812;2024-01-15T05:34:56;1.60;99.90
52919;DHT22;38793;52.690;6.812;2024-01-15T05:37:22;1.50;99.90
52919;DHT22;38793;52.690;6.812;2024-01-15T05:39:48;1.50;99.90
52919;DHT22;38793;52.690;6.812;2024-01-15T05:42:13;1.50;99.90
52919;DHT22;38793;52.690;6.812;2024-01-15T05:44:39;1.50;99.90
52919;DHT22;38793;52.690;6.812;2024-01-15T05:47:04;1.40;99.90
52919;DHT22;38793;52.690;6.812;2024-01-15T05:49:30;1.40;99.90
52919;DHT22;38793;52.690;6.812;2024-01-15T05:51:56;1.30;99.90
52919;DHT22;38793;52.690;6.812;2024-01-15T05:54:21;1.30;99.90
52919;DHT22;38793;52.690;6.812;2024-01-15T05:56:47;1.30;99.90
52919;DHT22;38793;52.690;6.812;2024-01-15T05:59:12;1.20;99.90
52919;DHT22;38793;52.690;6.812;2024-01-15T06:01:38;1.20;99.90
52919;DHT22;38793;52.690;6.812;2024-01-15T06:04:03;1.20;99.90
52919;DHT22;38793;52.690;6.812;2024-01-15T06:06:29;1.20;99.90
52919;DHT22;38793;52.690;6.812;2024-01-15T06:08:55;1.20;99.90
52919;DHT22;38793;52.690;6.812;2024-01-15T06:11:20;1.20;99.90
52919;DHT22;38793;52.690;6.812;2024-01-15T06:13:46;1.20;99.90
52919;DHT22;38793;52.690;6.812;2024-01-15T06:16:14;1.20;99.90
52919;DHT22;38793;52.690;6.812;2024-01-15T06:18:40;1.20;99.90
52919;DHT22;38793;52.690;6.812;2024-01-15T06:21:05;1.30;99.90
52919;DHT22;38793;52.690;6.812;2024-01-15T06:23:31;1.30;99.90
52919;DHT22;38793;52.690;6.812;2024-01-15T06:25:56;1.30;99.90
52919;DHT22;38793;52.690;6.812;2024-01-15T06:28:22;1.30;99.90
52919;DHT22;38793;52.690;6.812;2024-01-15T06:30:48;1.30;99.90
52919;DHT22;38793;52.690;6.812;2024-01-15T06:33:13;1.30;99.90
52919;DHT22;38793;52.690;6.812;2024-01-15T06:35:39;1.30;99.90
52919;DHT22;38793;52.690;6.812;2024-01-15T06:38:05;1.20;99.90
52919;DHT22;38793;52.690;6.812;2024-01-15T06:40:30;1.20;99.90
52919;DHT22;38793;52.690;6.812;2024-01-15T06:42:56;1.20;99.90
52919;DHT22;38793;52.690;6.812;2024-01-15T06:45:21;1.20;99.90
52919;DHT22;38793;52.690;6.812;2024-01-15T06:47:47;1.20;99.90
52919;DHT22;38793;52.690;6.812;2024-01-15T06:50:12;1.30;99.90
52919;DHT22;38793;52.690;6.812;2024-01-15T06:52:38;1.20;99.90
52919;DHT22;38793;52.690;6.812;2024-01-15T06:55:04;1.20;99.90
52919;DHT22;38793;52.690;6.812;2024-01-15T06:57:31;1.20;99.90
52919;DHT22;38793;52.690;6.812;2024-01-15T06:59:56;1.20;99.90
52919;DHT22;38793;52.690;6.812;2024-01-15T07:02:22;1.20;99.90
52919;DHT22;38793;52.690;6.812;2024-01-15T07:04:48;1.20;99.90
52919;DHT22;38793;52.690;6.812;2024-01-15T07:07:13;1.10;99.90
52919;DHT22;38793;52.690;6.812;2024-01-15T07:09:39;1.10;99.90
52919;DHT22;38793;52.690;6.812;2024-01-15T07:12:05;1.10;99.90
52919;DHT22;38793;52.690;6.812;2024-01-15T07:14:30;1.10;99.90
52919;DHT22;38793;52.690;6.812;2024-01-15T07:16:56;1.10;99.90
52919;DHT22;38793;52.690;6.812;2024-01-15T07:19:21;1.10;99.90
52919;DHT22;38793;52.690;6.812;2024-01-15T07:21:47;1.00;99.90
52919;DHT22;38793;52.690;6.812;2024-01-15T07:24:13;1.00;99.90
52919;DHT22;38793;52.690;6.812;2024-01-15T07:26:38;1.00;99.90
52919;DHT22;38793;52.690;6.812;2024-01-15T07:29:04;1.00;99.90
52919;DHT22;38793;52.690;6.812;2024-01-15T07:31:30;1.00;99.90
52919;DHT22;38793;52.690;6.812;2024-01-15T07:33:56;1.00;99.90
52919;DHT22;38793;52.690;6.812;2024-01-15T07:36:21;1.00;99.90
52919;DHT22;38793;52.690;6.812;2024-01-15T07:38:47;1.00;99.90
52919;DHT22;38793;52.690;6.812;2024-01-15T07:41:13;1.00;99.90
52919;DHT22;38793;52.690;6.812;2024-01-15T07:43:39;1.10;99.90
52919;DHT22;38793;52.690;6.812;2024-01-15T07:46:05;1.00;99.90
52919;DHT22;38793;52.690;6.812;2024-01-15T07:48:32;1.00;99.90
52919;DHT22;38793;52.690;6.812;2024-01-15T07:50:58;1.00;99.90
52919;DHT22;38793;52.690;6.812;2024-01-15T07:53:23;1.10;99.90
52919;DHT22;38793;52.690;6.812;2024-01-15T07:55:49;1.00;99.90
52919;DHT22;38793;52.690;6.812;2024-01-15T07:58:15;1.00;99.90
52919;DHT22;38793;52.690;6.812;2024-01-15T08:00:40;1.10;99.90
52919;DHT22;38793;52.690;6.812;2024-01-15T08:03:06;1.10;99.90
52919;DHT22;38793;52.690;6.812;2024-01-15T08:05:31;1.10;99.90
52919;DHT22;38793;52.690;6.812;2024-01-15T08:07:58;1.10;99.90
52919;DHT22;38793;52.690;6.812;2024-01-15T08:10:23;1.10;99.90
52919;DHT22;38793;52.690;6.812;2024-01-15T08:12:49;1.10;99.90
52919;DHT22;38793;52.690;6.812;2024-01-15T08:15:14;1.10;99.90
52919;DHT22;38793;52.690;6.812;2024-01-15T08:17:40;1.10;99.90
52919;DHT22;38793;52.690;6.812;2024-01-15T08:20:06;1.20;99.90
52919;DHT22;38793;52.690;6.812;2024-01-15T08:22:32;1.30;99.90
52919;DHT22;38793;52.690;6.812;2024-01-15T08:24:57;1.40;99.90
52919;DHT22;38793;52.690;6.812;2024-01-15T08:27:23;1.50;99.90
52919;DHT22;38793;52.690;6.812;2024-01-15T08:29:49;1.80;99.90
52919;DHT22;38793;52.690;6.812;2024-01-15T08:32:14;1.90;99.90
52919;DHT22;38793;52.690;6.812;2024-01-15T08:34:41;2.00;99.90
52919;DHT22;38793;52.690;6.812;2024-01-15T08:37:07;2.10;99.90
52919;DHT22;38793;52.690;6.812;2024-01-15T08:39:33;2.40;99.90
52919;DHT22;38793;52.690;6.812;2024-01-15T08:41:59;3.00;99.90
52919;DHT22;38793;52.690;6.812;2024-01-15T08:44:24;3.60;99.90
52919;DHT22;38793;52.690;6.812;2024-01-15T08:46:50;4.30;99.90
52919;DHT22;38793;52.690;6.812;2024-01-15T08:49:15;5.00;99.90
52919;DHT22;38793;52.690;6.812;2024-01-15T08:51:41;5.70;99.90
52919;DHT22;38793;52.690;6.812;2024-01-15T08:54:06;6.30;99.90
52919;DHT22;38793;52.690;6.812;2024-01-15T08:56:34;6.80;99.90
52919;DHT22;38793;52.690;6.812;2024-01-15T08:58:59;7.10;99.90
52919;DHT22;38793;52.690;6.812;2024-01-15T09:01:25;7.00;99.90
52919;DHT22;38793;52.690;6.812;2024-01-15T09:03:51;6.30;99.90
52919;DHT22;38793;52.690;6.812;2024-01-15T09:06:17;5.50;99.90
52919;DHT22;38793;52.690;6.812;2024-01-15T09:08:42;4.80;99.90
52919;DHT22;38793;52.690;6.812;2024-01-15T09:11:08;4.10;99.90
52919;DHT22;38793;52.690;6.812;2024-01-15T09:13:33;4.00;99.90
52919;DHT22;38793;52.690;6.812;2024-01-15T09:15:59;4.20;99.90
52919;DHT22;38793;52.690;6.812;2024-01-15T09:18:25;4.40;99.90
52919;DHT22;38793;52.690;6.812;2024-01-15T09:20:51;4.70;99.90
52919;DHT22;38793;52.690;6.812;2024-01-15T09:23:16;5.00;99.90
52919;DHT22;38793;52.690;6.812;2024-01-15T09:25:42;5.20;99.90
52919;DHT22;38793;52.690;6.812;2024-01-15T09:28:08;5.10;99.90
52919;DHT22;38793;52.690;6.812;2024-01-15T09:30:33;4.60;99.90
52919;DHT22;38793;52.690;6.812;2024-01-15T09:32:59;4.20;99.90
52919;DHT22;38793;52.690;6.812;2024-01-15T09:35:24;4.10;99.90
52919;DHT22;38793;52.690;6.812;2024-01-15T09:37:50;4.00;99.90
52919;DHT22;38793;52.690;6.812;2024-01-15T09:40:16;4.20;99.90
52919;DHT22;38793;52.690;6.812;2024-01-15T09:42:42;4.60;99.90
52919;DHT22;38793;52.690;6.812;2024-01-15T09:45:08;5.00;99.90
52919;DHT22;38793;52.690;6.812;2024-01-15T09:47:38;5.30;99.90
52919;DHT22;38793;52.690;6.812;2024-01-15T09:50:04;5.30;99.90
52919;DHT22;38793;52.690;6.812;2024-01-15T09:52:30;4.80;99.90
52919;DHT22;38793;52.690;6.812;2024-01-15T09:54:58;4.20;99.90
52919;DHT22;38793;52.690;6.812;2024-01-15T09:57:25;3.60;99.90
52919;DHT22;38793;52.690;6.812;2024-01-15T09:59:52;3.20;99.90
52919;DHT22;38793;52.690;6.812;2024-01-15T10:02:18;2.90;99.90
52919;DHT22;38793;52.690;6.812;2024-01-15T10:04:44;2.80;99.90
52919;DHT22;38793;52.690;6.812;2024-01-15T10:07:14;2.90;99.90
52919;DHT22;38793;52.690;6.812;2024-01-15T10:09:41;3.00;99.90
52919;DHT22;38793;52.690;6.812;2024-01-15T10:12:07;3.10;99.90
52919;DHT22;38793;52.690;6.812;2024-01-15T10:14:34;3.10;99.90
52919;DHT22;38793;52.690;6.812;2024-01-15T10:17:00;3.20;99.90
52919;DHT22;38793;52.690;6.812;2024-01-15T10:19:26;3.30;99.90
52919;DHT22;38793;52.690;6.812;2024-01-15T10:21:51;3.40;99.90
52919;DHT22;38793;52.690;6.812;2024-01-15T10:24:17;3.40;99.90
52919;DHT22;38793;52.690;6.812;2024-01-15T10:26:43;3.60;99.90
52919;DHT22;38793;52.690;6.812;2024-01-15T10:29:11;3.80;99.90
52919;DHT22;38793;52.690;6.812;2024-01-15T10:31:37;4.00;99.90
52919;DHT22;38793;52.690;6.812;2024-01-15T10:34:13;4.20;99.90
52919;DHT22;38793;52.690;6.812;2024-01-15T10:36:41;4.40;99.90
52919;DHT22;38793;52.690;6.812;2024-01-15T10:39:06;4.50;99.90
52919;DHT22;38793;52.690;6.812;2024-01-15T10:41:33;4.30;99.90
52919;DHT22;38793;52.690;6.812;2024-01-15T10:43:59;4.40;99.90
52919;DHT22;38793;52.690;6.812;2024-01-15T10:46:25;4.90;99.90
52919;DHT22;38793;52.690;6.812;2024-01-15T10:48:51;5.20;99.90
52919;DHT22;38793;52.690;6.812;2024-01-15T10:51:17;5.00;99.90
52919;DHT22;38793;52.690;6.812;2024-01-15T10:53:44;4.50;99.90
52919;DHT22;38793;52.690;6.812;2024-01-15T10:56:11;4.10;99.90
52919;DHT22;38793;52.690;6.812;2024-01-15T10:58:39;3.70;99.90
52919;DHT22;38793;52.690;6.812;2024-01-15T11:01:06;3.40;99.90
52919;DHT22;38793;52.690;6.812;2024-01-15T11:03:32;3.10;99.90
52919;DHT22;38793;52.690;6.812;2024-01-15T11:05:59;3.00;99.90
52919;DHT22;38793;52.690;6.812;2024-01-15T11:08:25;2.90;99.90
52919;DHT22;38793;52.690;6.812;2024-01-15T11:10:51;2.80;99.90
52919;DHT22;38793;52.690;6.812;2024-01-15T11:13:22;2.80;99.90
52919;DHT22;38793;52.690;6.812;2024-01-15T11:16:05;2.70;99.90
52919;DHT22;38793;52.690;6.812;2024-01-15T11:19:01;2.70;99.90
52919;DHT22;38793;52.690;6.812;2024-01-15T11:21:28;2.60;99.90
52919;DHT22;38793;52.690;6.812;2024-01-15T11:23:56;2.60;99.90
52919;DHT22;38793;52.690;6.812;2024-01-15T11:26:30;2.70;99.90
52919;DHT22;38793;52.690;6.812;2024-01-15T11:28:59;2.80;99.90
52919;DHT22;38793;52.690;6.812;2024-01-15T11:33:54;2.80;99.90
52919;DHT22;38793;52.690;6.812;2024-01-15T11:36:21;2.70;99.90
52919;DHT22;38793;52.690;6.812;2024-01-15T11:38:46;2.70;99.90
52919;DHT22;38793;52.690;6.812;2024-01-15T11:41:15;2.60;99.90
52919;DHT22;38793;52.690;6.812;2024-01-15T11:43:44;2.60;99.90
52919;DHT22;38793;52.690;6.812;2024-01-15T11:46:12;2.50;99.90
52919;DHT22;38793;52.690;6.812;2024-01-15T11:48:43;2.50;99.90
52919;DHT22;38793;52.690;6.812;2024-01-15T11:51:12;2.50;99.90
52919;DHT22;38793;52.690;6.812;2024-01-15T11:53:48;2.50;99.90
52919;DHT22;38793;52.690;6.812;2024-01-15T11:56:19;2.60;99.90
52919;DHT22;38793;52.690;6.812;2024-01-15T11:58:47;2.90;99.90
52919;DHT22;38793;52.690;6.812;2024-01-15T12:01:13;3.00;99.90
52919;DHT22;38793;52.690;6.812;2024-01-15T12:03:39;3.20;99.90
52919;DHT22;38793;52.690;6.812;2024-01-15T12:06:09;3.30;99.90
52919;DHT22;38793;52.690;6.812;2024-01-15T12:08:35;3.20;99.90
52919;DHT22;38793;52.690;6.812;2024-01-15T12:11:13;3.10;99.90
52919;DHT22;38793;52.690;6.812;2024-01-15T12:13:40;3.00;99.90
52919;DHT22;38793;52.690;6.812;2024-01-15T12:16:05;2.90;99.90
52919;DHT22;38793;52.690;6.812;2024-01-15T12:18:31;2.80;99.90
52919;DHT22;38793;52.690;6.812;2024-01-15T12:20:57;2.80;99.90
52919;DHT22;38793;52.690;6.812;2024-01-15T12:23:24;2.80;99.90
52919;DHT22;38793;52.690;6.812;2024-01-15T12:25:50;2.70;99.90
52919;DHT22;38793;52.690;6.812;2024-01-15T12:28:16;2.70;99.90
52919;DHT22;38793;52.690;6.812;2024-01-15T12:30:41;2.60;99.90
52919;DHT22;38793;52.690;6.812;2024-01-15T12:33:08;2.50;99.90
52919;DHT22;38793;52.690;6.812;2024-01-15T12:35:34;2.40;99.90
52919;DHT22;38793;52.690;6.812;2024-01-15T12:38:01;2.40;99.90
52919;DHT22;38793;52.690;6.812;2024-01-15T12:40:30;2.30;99.90
52919;DHT22;38793;52.690;6.812;2024-01-15T12:42:56;2.20;99.90
52919;DHT22;38793;52.690;6.812;2024-01-15T12:45:22;2.10;99.90
52919;DHT22;38793;52.690;6.812;2024-01-15T12:47:48;2.10;99.90
52919;DHT22;38793;52.690;6.812;2024-01-15T12:50:13;2.10;99.90
52919;DHT22;38793;52.690;6.812;2024-01-15T12:52:42;2.10;99.90
52919;DHT22;38793;52.690;6.812;2024-01-15T12:55:09;2.10;99.90
52919;DHT22;38793;52.690;6.812;2024-01-15T12:57:35;2.10;99.90
52919;DHT22;38793;52.690;6.812;2024-01-15T13:00:02;2.10;99.90
52919;DHT22;38793;52.690;6.812;2024-01-15T13:02:32;2.10;99.90
52919;DHT22;38793;52.690;6.812;2024-01-15T13:04:58;2.10;99.90
52919;DHT22;38793;52.690;6.812;2024-01-15T13:07:25;2.10;99.90
52919;DHT22;38793;52.690;6.812;2024-01-15T13:09:50;2.10;99.90
52919;DHT22;38793;52.690;6.812;2024-01-15T13:12:19;2.10;99.90
52919;DHT22;38793;52.690;6.812;2024-01-15T13:14:45;2.10;99.90
52919;DHT22;38793;52.690;6.812;2024-01-15T13:17:11;2.10;99.90
52919;DHT22;38793;52.690;6.812;2024-01-15T13:19:36;2.20;99.90
52919;DHT22;38793;52.690;6.812;2024-01-15T13:22:04;2.20;99.90
52919;DHT22;38793;52.690;6.812;2024-01-15T13:24:32;2.20;99.90
52919;DHT22;38793;52.690;6.812;2024-01-15T13:26:57;2.30;99.90
52919;DHT22;38793;52.690;6.812;2024-01-15T13:29:23;2.40;99.90
52919;DHT22;38793;52.690;6.812;2024-01-15T13:31:49;2.50;99.90
52919;DHT22;38793;52.690;6.812;2024-01-15T13:34:14;2.60;99.90
52919;DHT22;38793;52.690;6.812;2024-01-15T13:36:40;2.70;99.90
52919;DHT22;38793;52.690;6.812;2024-01-15T13:39:06;2.60;99.90
52919;DHT22;38793;52.690;6.812;2024-01-15T13:41:35;2.50;99.90
52919;DHT22;38793;52.690;6.812;2024-01-15T13:44:00;2.50;99.90
52919;DHT22;38793;52.690;6.812;2024-01-15T13:46:26;2.40;99.90
52919;DHT22;38793;52.690;6.812;2024-01-15T13:48:52;2.50;99.90
52919;DHT22;38793;52.690;6.812;2024-01-15T13:51:18;2.80;99.90
52919;DHT22;38793;52.690;6.812;2024-01-15T13:53:44;3.00;99.90
52919;DHT22;38793;52.690;6.812;2024-01-15T13:56:09;3.00;99.90
52919;DHT22;38793;52.690;6.812;2024-01-15T13:58:36;3.00;99.90
52919;DHT22;38793;52.690;6.812;2024-01-15T14:01:03;2.90;99.90
52919;DHT22;38793;52.690;6.812;2024-01-15T14:03:31;2.80;99.90
52919;DHT22;38793;52.690;6.812;2024-01-15T14:05:57;2.80;99.90
52919;DHT22;38793;52.690;6.812;2024-01-15T14:08:23;2.80;99.90
52919;DHT22;38793;52.690;6.812;2024-01-15T14:10:49;2.80;99.90
52919;DHT22;38793;52.690;6.812;2024-01-15T14:13:14;2.70;99.90
52919;DHT22;38793;52.690;6.812;2024-01-15T14:15:40;2.70;99.90
52919;DHT22;38793;52.690;6.812;2024-01-15T14:18:06;2.70;99.90
52919;DHT22;38793;52.690;6.812;2024-01-15T14:20:31;2.70;99.90
52919;DHT22;38793;52.690;6.812;2024-01-15T14:22:58;2.60;99.90
52919;DHT22;38793;52.690;6.812;2024-01-15T14:25:23;2.60;99.90
52919;DHT22;38793;52.690;6.812;2024-01-15T14:27:52;2.90;99.90
52919;DHT22;38793;52.690;6.812;2024-01-15T14:30:17;3.20;99.90
52919;DHT22;38793;52.690;6.812;2024-01-15T14:32:43;3.60;99.90
52919;DHT22;38793;52.690;6.812;2024-01-15T14:35:09;3.90;99.90
52919;DHT22;38793;52.690;6.812;2024-01-15T14:37:38;4.00;99.90
52919;DHT22;38793;52.690;6.812;2024-01-15T14:40:07;4.20;99.90
52919;DHT22;38793;52.690;6.812;2024-01-15T14:42:34;4.30;99.90
52919;DHT22;38793;52.690;6.812;2024-01-15T14:45:00;4.30;99.90
52919;DHT22;38793;52.690;6.812;2024-01-15T14:47:27;4.10;99.90
52919;DHT22;38793;52.690;6.812;2024-01-15T14:49:53;4.00;99.90
52919;DHT22;38793;52.690;6.812;2024-01-15T14:52:18;4.00;99.90
52919;DHT22;38793;52.690;6.812;2024-01-15T14:54:44;3.90;99.90
52919;DHT22;38793;52.690;6.812;2024-01-15T14:57:09;3.80;99.90
52919;DHT22;38793;52.690;6.812;2024-01-15T14:59:35;3.50;99.90
52919;DHT22;38793;52.690;6.812;2024-01-15T15:02:01;3.40;99.90
52919;DHT22;38793;52.690;6.812;2024-01-15T15:04:26;3.20;99.90
52919;DHT22;38793;52.690;6.812;2024-01-15T15:06:53;3.10;99.90
52919;DHT22;38793;52.690;6.812;2024-01-15T15:09:19;2.90;99.90
52919;DHT22;38793;52.690;6.812;2024-01-15T15:11:45;2.70;99.90
52919;DHT22;38793;52.690;6.812;2024-01-15T15:14:10;2.60;99.90
52919;DHT22;38793;52.690;6.812;2024-01-15T15:16:36;2.50;99.90
52919;DHT22;38793;52.690;6.812;2024-01-15T15:19:01;2.40;99.90
52919;DHT22;38793;52.690;6.812;2024-01-15T15:21:27;2.30;99.90
52919;DHT22;38793;52.690;6.812;2024-01-15T15:23:54;2.30;99.90
52919;DHT22;38793;52.690;6.812;2024-01-15T15:26:20;2.30;99.90
52919;DHT22;38793;52.690;6.812;2024-01-15T15:28:45;2.30;99.90
52919;DHT22;38793;52.690;6.812;2024-01-15T15:31:11;2.20;99.90
52919;DHT22;38793;52.690;6.812;2024-01-15T15:33:37;2.20;99.90
52919;DHT22;38793;52.690;6.812;2024-01-15T15:36:03;2.10;99.90
52919;DHT22;38793;52.690;6.812;2024-01-15T15:38:32;2.10;99.90
52919;DHT22;38793;52.690;6.812;2024-01-15T15:40:58;2.10;99.90